Time;durP1;ratioP1;P1;durP2;ratioP2;P2;SDS_P1;SDS_P2;PMS_P1;PMS_P2;Temp;Humidity;BMP_temperature;BMP_pressure;BME280_temperature;BME280_humidity;BME280_pressure;Samples;Min_cycle;Max_cycle;Signal;HPM_P1;HPM_P2
2022/10/04 04:02:35;;;;;;;12.60;2.43;;;9.30;96.30;;;;;;5028639;23;20487;-80
2022/10/04 04:05:24;;;;;;;11.03;1.80;;;9.30;96.30;;;;;;5014620;28;20461;-79
2022/10/04 04:08:13;;;;;;;7.17;2.10;;;9.30;96.30;;;;;;4986101;28;20455;-79
2022/10/04 04:10:45;;;;;;;6.57;1.73;;;9.30;96.30;;;;;;4996855;28;20436;-80
2022/10/04 04:13:10;;;;;;;7.53;2.40;;;9.30;96.30;;;;;;5013388;28;20415;-78
2022/10/04 04:15:42;;;;;;;7.03;2.60;;;9.20;96.30;;;;;;5015898;28;20396;-78
2022/10/04 04:18:22;;;;;;;5.97;1.77;;;9.10;96.30;;;;;;5007967;28;20645;-79
2022/10/04 04:20:53;;;;;;;5.30;1.67;;;9.00;96.30;;;;;;5000967;28;20530;-79
2022/10/04 04:23:24;;;;;;;7.87;1.80;;;8.90;96.30;;;;;;5001324;28;20416;-79
2022/10/04 04:25:54;;;;;;;8.20;2.20;;;8.90;96.30;;;;;;4977103;28;20511;-79
2022/10/04 04:29:24;;;;;;;9.93;2.40;;;8.90;96.30;;;;;;4994451;28;20502;-78
2022/10/04 04:32:07;;;;;;;10.43;2.83;;;8.90;96.30;;;;;;4933632;29;20529;-79
2022/10/04 04:34:47;;;;;;;3.57;1.90;;;8.90;96.30;;;;;;5008947;28;20842;-79
2022/10/04 04:37:12;;;;;;;8.70;2.00;;;8.90;96.30;;;;;;4996104;28;20408;-79
2022/10/04 04:39:43;;;;;;;6.53;2.30;;;8.90;96.30;;;;;;5013106;28;21767;-79
2022/10/04 04:42:09;;;;;;;4.57;1.80;;;8.90;96.30;;;;;;4996312;28;20567;-79
2022/10/04 04:44:45;;;;;;;5.20;2.00;;;8.90;96.30;;;;;;5013993;28;20462;-77
2022/10/04 04:47:29;;;;;;;8.80;2.07;;;8.90;96.30;;;;;;4995682;28;20536;-75
2022/10/04 04:49:57;;;;;;;7.30;2.07;;;8.90;96.30;;;;;;4996723;28;20416;-77
2022/10/04 04:52:27;;;;;;;3.53;1.70;;;8.90;96.30;;;;;;5010900;28;20445;-77
2022/10/04 04:54:54;;;;;;;8.07;2.57;;;9.00;96.30;;;;;;4989178;28;20466;-77
2022/10/04 04:57:20;;;;;;;8.77;2.10;;;9.00;96.30;;;;;;5014600;28;20838;-77
2022/10/04 04:59:51;;;;;;;16.27;2.43;;;9.00;96.30;;;;;;5014664;28;20439;-76
2022/10/04 05:02:28;;;;;;;6.07;2.13;;;9.00;96.30;;;;;;5014660;28;20488;-77
2022/10/04 05:05:16;;;;;;;4.93;1.77;;;9.00;96.30;;;;;;5017340;28;20494;-77
2022/10/04 05:07:42;;;;;;;4.60;1.90;;;9.10;96.30;;;;;;4997652;28;20965;-76
2022/10/04 05:10:31;;;;;;;9.60;2.10;;;9.10;96.30;;;;;;5013206;28;20404;-77
2022/10/04 05:12:59;;;;;;;4.90;1.87;;;9.00;96.30;;;;;;5007832;28;20455;-77
2022/10/04 05:15:36;;;;;;;5.50;2.33;;;9.00;96.30;;;;;;5013367;28;20396;-77
2022/10/04 05:18:21;;;;;;;5.33;2.00;;;9.00;96.30;;;;;;5012958;28;20399;-76
2022/10/04 05:20:51;;;;;;;4.73;2.00;;;9.00;96.30;;;;;;5013309;28;20426;-77
2022/10/04 05:23:16;;;;;;;8.47;2.10;;;9.00;96.30;;;;;;5002278;28;20532;-76
2022/10/04 05:25:42;;;;;;;13.30;2.20;;;9.00;96.30;;;;;;4993710;28;20991;-76
2022/10/04 05:28:13;;;;;;;6.10;2.10;;;9.00;96.30;;;;;;4992293;28;20288;-76
2022/10/04 05:31:06;;;;;;;8.83;2.00;;;9.00;96.30;;;;;;4993519;28;20188;-76
2022/10/04 05:33:50;;;;;;;15.80;2.23;;;9.00;96.30;;;;;;4993527;28;20396;-77
2022/10/04 05:36:45;;;;;;;3.63;1.90;;;9.00;96.30;;;;;;4993719;28;20412;-76
2022/10/04 05:39:35;;;;;;;11.00;2.33;;;9.00;96.30;;;;;;4993251;28;20432;-76
2022/10/04 05:42:28;;;;;;;6.70;1.73;;;9.00;96.30;;;;;;4993327;28;20452;-77
2022/10/04 05:44:55;;;;;;;14.90;1.73;;;9.00;96.30;;;;;;4993315;28;20495;-76
2022/10/04 05:47:26;;;;;;;12.60;2.30;;;9.10;96.30;;;;;;4992300;28;20451;-76
2022/10/04 05:49:56;;;;;;;10.60;2.10;;;9.10;96.30;;;;;;4993233;28;20408;-76
2022/10/04 05:52:34;;;;;;;4.37;1.43;;;9.10;96.30;;;;;;4993070;28;20427;-77
2022/10/04 05:55:31;;;;;;;4.80;1.73;;;9.10;96.30;;;;;;5006365;28;20415;-77
2022/10/04 05:58:00;;;;;;;5.53;2.00;;;9.20;96.30;;;;;;5012206;28;20921;-77
2022/10/04 06:00:38;;;;;;;5.63;2.17;;;9.10;96.30;;;;;;5012609;28;20408;-77
2022/10/04 06:03:33;;;;;;;5.50;1.67;;;9.20;96.30;;;;;;5012753;28;20392;-76
2022/10/04 06:06:27;;;;;;;12.90;2.77;;;9.20;96.30;;;;;;5012679;28;20403;-76
2022/10/04 06:09:12;;;;;;;8.27;1.97;;;9.20;96.30;;;;;;5011740;28;20419;-75
2022/10/04 06:12:00;;;;;;;8.47;1.83;;;9.20;96.30;;;;;;5034431;28;20473;-78
2022/10/04 06:14:40;;;;;;;5.37;2.20;;;9.10;96.30;;;;;;5035207;28;20415;-79
2022/10/04 06:17:15;;;;;;;8.30;1.70;;;9.10;96.30;;;;;;5029925;28;20430;-77
2022/10/04 06:20:11;;;;;;;6.60;1.97;;;9.10;96.30;;;;;;5035150;28;20866;-75
2022/10/04 06:22:46;;;;;;;6.50;2.33;;;9.10;96.30;;;;;;5012583;28;20462;-75
2022/10/04 06:25:21;;;;;;;9.43;1.73;;;9.10;96.30;;;;;;5011303;28;20469;-76
2022/10/04 06:28:20;;;;;;;10.47;2.00;;;9.10;96.30;;;;;;5012081;28;20459;-75
2022/10/04 06:31:13;;;;;;;6.87;1.80;;;9.20;96.30;;;;;;5012259;28;20431;-76
2022/10/04 06:33:41;;;;;;;7.00;1.73;;;9.20;96.30;;;;;;5012274;28;20547;-76
2022/10/04 06:36:34;;;;;;;9.93;1.93;;;9.30;96.30;;;;;;4994530;28;20427;-76
2022/10/04 06:39:41;;;;;;;13.97;1.80;;;9.30;96.30;;;;;;5014573;28;20415;-77
2022/10/04 06:42:32;;;;;;;6.63;1.70;;;9.40;96.30;;;;;;5015418;28;20774;-76
2022/10/04 06:45:24;;;;;;;3.23;1.60;;;9.60;96.30;;;;;;5016121;28;20479;-77
2022/10/04 06:48:21;;;;;;;9.80;1.93;;;9.70;96.30;;;;;;5015925;28;20539;-75
2022/10/04 06:51:34;;;;;;;8.50;1.70;;;9.80;96.30;;;;;;5016017;28;20838;-76
2022/10/04 06:54:21;;;;;;;6.80;1.90;;;9.90;96.30;;;;;;4936320;29;20522;-76
2022/10/04 06:57:13;;;;;;;6.90;2.00;;;10.10;96.30;;;;;;5015587;28;20757;-76
2022/10/04 07:00:03;;;;;;;2.90;1.57;;;10.20;96.30;;;;;;5014422;28;20615;-76
2022/10/04 07:02:48;;;;;;;7.93;1.60;;;10.30;96.30;;;;;;5015198;28;20457;-76
2022/10/04 07:05:30;;;;;;;4.53;1.57;;;10.40;96.30;;;;;;4998463;28;20825;-76
2022/10/04 07:08:05;;;;;;;6.90;1.60;;;10.60;96.30;;;;;;5014054;28;21002;-76
2022/10/04 07:10:31;;;;;;;13.10;1.87;;;10.70;96.30;;;;;;5015689;28;20451;-77
2022/10/04 07:13:30;;;;;;;8.23;1.77;;;10.80;96.30;;;;;;5015466;28;20860;-76
2022/10/04 07:16:02;;;;;;;4.17;1.57;;;11.00;96.30;;;;;;5015588;28;20176;-76
2022/10/04 07:18:41;;;;;;;7.20;2.30;;;11.10;96.30;;;;;;5015282;28;20451;-76
2022/10/04 07:21:11;;;;;;;27.33;2.70;;;11.10;96.30;;;;;;5015370;28;20790;-76
2022/10/04 07:23:52;;;;;;;8.60;1.57;;;11.20;96.30;;;;;;5015533;28;20392;-76
2022/10/04 07:26:46;;;;;;;8.60;2.30;;;11.20;96.30;;;;;;4997716;28;20446;-76
2022/10/04 07:29:27;;;;;;;5.53;1.63;;;11.10;96.30;;;;;;5015360;28;20546;-76
2022/10/04 07:32:07;;;;;;;8.17;2.43;;;11.10;96.30;;;;;;5015081;28;20507;-76
2022/10/04 07:34:43;;;;;;;8.00;1.97;;;11.30;96.30;;;;;;5015113;28;20782;-76
2022/10/04 07:37:14;;;;;;;5.60;1.50;;;11.50;96.30;;;;;;5013725;28;20415;-76
2022/10/04 07:39:44;;;;;;;11.93;1.80;;;11.40;96.30;;;;;;5015153;28;20483;-76
2022/10/04 07:42:21;;;;;;;6.30;1.90;;;11.60;96.30;;;;;;5015073;28;20443;-77
2022/10/04 07:45:16;;;;;;;6.17;1.80;;;11.60;96.30;;;;;;5013835;28;20408;-76
2022/10/04 07:47:42;;;;;;;7.10;2.17;;;11.70;96.30;;;;;;4997027;28;20463;-76
2022/10/04 07:50:35;;;;;;;6.07;1.73;;;11.80;96.30;;;;;;4996505;28;20430;-76
2022/10/04 07:53:14;;;;;;;7.43;1.80;;;11.80;96.30;;;;;;5014988;28;20489;-76
2022/10/04 07:55:51;;;;;;;5.53;1.50;;;11.80;96.30;;;;;;5014884;28;20407;-76
2022/10/04 07:58:42;;;;;;;5.40;2.00;;;11.80;96.30;;;;;;5013445;28;20423;-76
2022/10/04 08:01:23;;;;;;;4.80;2.00;;;11.70;96.30;;;;;;5014603;28;20463;-75
2022/10/04 08:04:10;;;;;;;10.57;2.30;;;11.70;96.30;;;;;;4995432;28;20427;-75
2022/10/04 08:06:42;;;;;;;9.37;2.20;;;11.90;96.30;;;;;;4995049;28;20963;-75
2022/10/04 08:09:16;;;;;;;6.07;1.77;;;11.90;96.30;;;;;;4995511;28;20483;-75
2022/10/04 08:12:01;;;;;;;7.70;1.70;;;12.00;96.30;;;;;;5014531;28;20424;-75
2022/10/04 08:14:59;;;;;;;10.50;2.00;;;12.00;96.30;;;;;;4996906;28;20511;-75
2022/10/04 08:17:49;;;;;;;6.80;1.90;;;12.00;96.30;;;;;;4968748;28;20423;-75
2022/10/04 08:20:45;;;;;;;8.33;1.83;;;12.20;96.30;;;;;;4995897;28;20414;-75
2022/10/04 08:23:17;;;;;;;9.70;1.77;;;12.40;96.30;;;;;;4996012;28;20417;-75
2022/10/04 08:26:04;;;;;;;7.83;1.60;;;12.80;96.30;;;;;;4996414;28;20887;-75
2022/10/04 08:32:22;;;;;;;3.23;1.63;;;12.70;96.30;;;;;;4996731;28;20471;-75
2022/10/04 08:34:53;;;;;;;3.80;1.73;;;12.70;96.30;;;;;;4995049;28;20527;-75
2022/10/04 08:37:58;;;;;;;5.57;1.67;;;12.90;96.30;;;;;;4996464;28;20753;-75
2022/10/04 08:40:48;;;;;;;6.80;1.70;;;13.10;96.30;;;;;;4995063;28;20416;-75
2022/10/04 08:44:02;;;;;;;5.97;1.80;;;12.80;96.30;;;;;;4994245;28;20424;-75
2022/10/04 08:47:04;;;;;;;11.47;2.07;;;13.00;96.30;;;;;;4996636;28;20989;-75
2022/10/04 08:49:48;;;;;;;11.50;2.47;;;13.30;96.30;;;;;;4995487;28;20393;-75
2022/10/04 08:53:01;;;;;;;7.83;1.83;;;13.30;96.30;;;;;;4996370;28;20916;-75
2022/10/04 08:55:39;;;;;;;3.63;1.90;;;13.30;96.30;;;;;;4960508;28;20420;-75
2022/10/04 08:58:14;;;;;;;7.50;1.83;;;13.70;96.30;;;;;;4993758;28;20455;-76
2022/10/04 09:01:14;;;;;;;5.63;2.10;;;13.70;96.30;;;;;;4993834;28;20495;-75
2022/10/04 09:04:00;;;;;;;9.70;1.60;;;13.90;96.30;;;;;;4993406;28;20408;-75
2022/10/04 09:06:28;;;;;;;15.57;2.97;;;14.20;96.30;;;;;;4993893;28;20393;-76
2022/10/04 09:09:22;;;;;;;8.03;1.63;;;14.50;96.30;;;;;;4993437;28;20508;-75
2022/10/04 09:12:06;;;;;;;8.37;1.90;;;14.90;96.30;;;;;;4993577;28;20533;-76
2022/10/04 09:15:00;;;;;;;6.37;2.00;;;14.90;96.30;;;;;;4993669;28;20916;-75
2022/10/04 09:17:51;;;;;;;4.63;1.70;;;15.10;96.30;;;;;;4993475;28;20396;-76
2022/10/04 09:20:23;;;;;;;7.90;1.40;;;15.10;96.30;;;;;;4993488;28;20503;-75
2022/10/04 09:23:06;;;;;;;8.30;1.90;;;14.70;96.30;;;;;;5069413;28;21031;-74
2022/10/04 09:26:10;;;;;;;3.73;1.60;;;15.00;96.30;;;;;;5069455;28;20495;-76
2022/10/04 09:29:13;;;;;;;5.53;1.30;;;15.00;96.30;;;;;;5062528;28;20424;-76
2022/10/04 09:32:12;;;;;;;7.60;1.57;;;15.10;96.30;;;;;;5068735;28;20793;-77
2022/10/04 09:34:37;;;;;;;5.80;1.70;;;15.10;96.30;;;;;;5067645;28;20409;-76
2022/10/04 09:37:12;;;;;;;6.63;1.60;;;15.10;96.30;;;;;;5068676;28;20405;-75
2022/10/04 09:40:06;;;;;;;5.27;1.17;;;15.40;96.30;;;;;;5068978;28;20193;-75
2022/10/04 09:42:46;;;;;;;9.80;1.70;;;15.60;96.30;;;;;;5068978;28;20544;-77
2022/10/04 09:45:30;;;;;;;5.00;1.30;;;16.20;96.30;;;;;;5068844;28;20409;-75
2022/10/04 09:48:27;;;;;;;7.30;2.30;;;16.80;96.30;;;;;;5068703;28;20987;-75
2022/10/04 09:51:14;;;;;;;5.40;1.67;;;17.10;96.30;;;;;;5068732;28;20440;-76
2022/10/04 09:54:02;;;;;;;4.27;1.40;;;17.30;96.30;;;;;;5068320;28;20738;-75
2022/10/04 09:56:52;;;;;;;6.20;1.20;;;17.20;96.30;;;;;;5068679;28;20416;-75
2022/10/04 09:59:50;;;;;;;5.93;1.50;;;17.30;96.30;;;;;;5068926;28;20418;-76
2022/10/04 10:02:41;;;;;;;4.37;1.50;;;17.40;96.30;;;;;;5058256;28;20558;-75
2022/10/04 10:05:17;;;;;;;12.60;2.23;;;17.00;96.30;;;;;;5068804;28;20770;-76
2022/10/04 10:08:20;;;;;;;4.20;1.40;;;16.60;96.30;;;;;;5068255;28;20445;-75
2022/10/04 10:14:28;;;;;;;5.43;1.33;;;16.80;96.30;;;;;;5068452;28;20488;-75
2022/10/04 10:17:19;;;;;;;7.23;1.33;;;16.90;96.30;;;;;;5028944;28;20937;-75
2022/10/04 12:21:28;;;;;;;;;;;;;;;;;;;;;
2022/10/04 13:09:35;;;;;;;2.70;0.73;;;19.70;96.30;;;;;;5538509;22;20494;-72
2022/10/04 13:12:30;;;;;;;4.43;1.07;;;19.20;96.30;;;;;;5031279;28;20443;-74
2022/10/04 13:15:31;;;;;;;2.77;1.03;;;19.60;96.30;;;;;;5032934;28;20494;-75
2022/10/04 13:18:10;;;;;;;2.73;0.80;;;19.50;96.30;;;;;;5038604;28;21008;-74
2022/10/04 13:20:53;;;;;;;3.43;1.00;;;19.50;95.80;;;;;;5043306;28;20433;-74
2022/10/04 13:23:27;;;;;;;3.63;0.93;;;19.60;96.30;;;;;;5051796;28;20418;-74
2022/10/04 13:26:16;;;;;;;6.67;1.10;;;19.50;96.30;;;;;;5051234;28;20501;-74
2022/10/04 13:29:07;;;;;;;4.10;0.90;;;19.60;96.30;;;;;;5016918;28;20461;-77
2022/10/04 13:31:57;;;;;;;2.30;0.90;;;19.00;94.80;;;;;;5029071;28;20449;-75
2022/10/04 13:34:41;;;;;;;2.97;0.80;;;19.30;96.30;;;;;;5012005;28;20417;-74
2022/10/04 13:37:16;;;;;;;2.53;0.83;;;19.60;96.30;;;;;;5011835;28;20831;-74
2022/10/04 13:40:08;;;;;;;3.43;0.80;;;19.80;93.90;;;;;;5011824;28;20403;-74
2022/10/04 13:43:12;;;;;;;2.17;1.00;;;20.20;95.50;;;;;;5011659;28;20501;-74
2022/10/04 13:45:53;;;;;;;4.13;1.00;;;20.50;94.80;;;;;;5012038;28;20408;-74
2022/10/04 13:48:56;;;;;;;2.40;1.00;;;20.30;93.00;;;;;;5015920;28;20425;-74
2022/10/04 13:51:40;;;;;;;2.50;1.00;;;20.00;96.00;;;;;;5031528;28;20469;-74
2022/10/04 13:57:23;;;;;;;2.50;1.00;;;20.00;95.80;;;;;;5032116;28;20452;-74
2022/10/04 14:00:13;;;;;;;3.23;0.90;;;20.30;92.80;;;;;;5027877;28;20418;-74
2022/10/04 14:03:19;;;;;;;2.80;1.03;;;20.50;93.80;;;;;;5031515;28;20535;-74
2022/10/04 14:06:36;;;;;;;3.27;0.80;;;20.50;96.00;;;;;;5031501;28;20406;-74
2022/10/04 14:09:26;;;;;;;2.43;1.00;;;20.50;96.30;;;;;;4974883;28;20488;-74
2022/10/04 14:12:12;;;;;;;9.93;0.80;;;20.00;94.90;;;;;;5022239;28;20438;-75
2022/10/04 14:15:20;;;;;;;2.43;0.90;;;19.90;93.00;;;;;;5035439;28;20761;-74
2022/10/04 14:18:13;;;;;;;4.03;1.10;;;19.50;93.90;;;;;;4973511;28;20931;-75
2022/10/04 14:21:00;;;;;;;1.73;0.83;;;19.40;96.30;;;;;;5038576;28;20783;-74
2022/10/04 14:23:47;;;;;;;3.00;0.83;;;19.60;95.20;;;;;;5054614;28;20500;-75
2022/10/04 14:26:28;;;;;;;1.40;0.80;;;19.10;96.30;;;;;;5054743;28;20406;-74
2022/10/04 14:29:09;;;;;;;2.10;0.90;;;19.40;96.00;;;;;;5054795;28;20757;-75
2022/10/04 14:31:38;;;;;;;4.07;1.00;;;19.60;94.50;;;;;;5054657;28;20792;-74
2022/10/04 14:34:43;;;;;;;4.30;0.90;;;19.40;95.30;;;;;;5036742;28;20523;-75
2022/10/04 14:37:40;;;;;;;2.27;0.80;;;19.60;95.80;;;;;;4933760;29;20427;-74
2022/10/04 14:40:33;;;;;;;5.03;1.00;;;19.00;95.80;;;;;;4934909;29;20415;-74
2022/10/04 14:43:35;;;;;;;1.50;0.80;;;18.80;96.30;;;;;;5003976;28;20497;-74
2022/10/04 14:46:28;;;;;;;2.03;0.90;;;18.40;96.30;;;;;;5014731;28;20403;-75
2022/10/04 14:49:18;;;;;;;2.93;1.00;;;18.10;96.30;;;;;;5036868;28;20833;-74
2022/10/04 14:52:08;;;;;;;4.20;0.90;;;18.20;96.30;;;;;;5023203;28;20469;-74
2022/10/04 14:54:46;;;;;;;2.03;1.00;;;17.90;96.30;;;;;;5054236;28;20410;-74
2022/10/04 14:57:35;;;;;;;2.90;1.07;;;17.60;96.30;;;;;;5039616;28;20415;-74
2022/10/04 15:00:22;;;;;;;1.40;0.80;;;17.50;96.30;;;;;;5035839;28;22037;-74
2022/10/04 15:03:03;;;;;;;2.50;0.70;;;17.50;96.30;;;;;;5041201;28;20507;-74
2022/10/04 15:06:06;;;;;;;2.40;1.10;;;17.30;96.30;;;;;;5028723;28;20964;-74
2022/10/04 15:08:53;;;;;;;2.03;1.10;;;17.20;96.30;;;;;;5029604;28;20409;-74
2022/10/04 15:11:38;;;;;;;2.13;0.80;;;17.20;96.30;;;;;;5042438;28;20445;-74
2022/10/04 15:14:25;;;;;;;2.00;0.73;;;17.20;96.30;;;;;;5032001;28;20521;-74
2022/10/04 15:16:57;;;;;;;3.43;1.00;;;17.20;96.30;;;;;;5031503;28;20438;-74
2022/10/04 15:19:36;;;;;;;2.13;1.00;;;17.00;96.30;;;;;;5029679;28;20513;-74
2022/10/04 15:22:29;;;;;;;1.77;0.90;;;16.90;96.30;;;;;;5017495;28;20450;-74
2022/10/04 15:24:55;;;;;;;9.90;1.13;;;16.80;96.30;;;;;;5032976;28;20426;-75
2022/10/04 15:27:32;;;;;;;1.90;0.87;;;16.80;96.30;;;;;;5032126;28;20422;-75
2022/10/04 15:30:16;;;;;;;13.53;1.13;;;16.50;96.30;;;;;;5033495;28;20172;-74
2022/10/04 15:33:06;;;;;;;3.70;1.10;;;16.40;96.30;;;;;;5033130;28;20795;-74
2022/10/04 15:35:34;;;;;;;3.47;1.03;;;16.10;96.30;;;;;;5042495;28;20448;-74
2022/10/04 15:38:34;;;;;;;6.00;1.13;;;15.80;96.30;;;;;;5016271;28;20411;-74
2022/10/04 15:41:17;;;;;;;9.77;0.90;;;15.70;96.30;;;;;;5014325;28;20973;-74
2022/10/04 15:44:14;;;;;;;9.53;1.10;;;15.40;96.30;;;;;;5032749;28;20427;-74
2022/10/04 15:46:48;;;;;;;1.87;1.00;;;15.30;96.30;;;;;;5032651;28;20827;-74
2022/10/04 15:49:24;;;;;;;4.57;1.10;;;15.00;96.30;;;;;;5015109;28;20415;-74
2022/10/04 15:52:17;;;;;;;6.60;0.90;;;14.90;96.30;;;;;;5030776;28;20490;-73
2022/10/04 15:55:09;;;;;;;1.10;0.63;;;14.80;96.30;;;;;;5031992;28;20860;-75
2022/10/04 15:57:55;;;;;;;1.80;1.00;;;14.50;96.30;;;;;;5031572;28;20423;-74
2022/10/04 16:00:40;;;;;;;5.50;1.60;;;14.20;96.30;;;;;;5041060;28;20467;-74
2022/10/04 16:03:20;;;;;;;4.77;2.27;;;14.00;96.30;;;;;;5032243;28;20861;-74
2022/10/04 16:06:24;;;;;;;2.60;2.40;;;13.90;96.30;;;;;;5032783;28;20429;-73
2022/10/04 16:09:04;;;;;;;3.37;2.40;;;13.70;96.30;;;;;;5037281;28;20438;-73
2022/10/04 16:12:00;;;;;;;2.93;1.70;;;13.50;96.30;;;;;;5036520;28;20969;-74
2022/10/04 16:14:45;;;;;;;2.90;1.10;;;13.30;96.30;;;;;;5013064;28;20935;-75
2022/10/04 16:18:04;;;;;;;3.60;1.73;;;13.20;96.30;;;;;;5038882;28;20458;-73
2022/10/04 16:20:49;;;;;;;10.60;5.13;;;13.10;96.30;;;;;;4985134;28;20939;-73
2022/10/04 16:23:25;;;;;;;17.93;13.10;;;12.90;96.30;;;;;;5052281;28;20430;-73
2022/10/04 16:25:53;;;;;;;43.57;33.80;;;12.80;96.30;;;;;;5044194;28;21017;-75
2022/10/04 16:28:27;;;;;;;30.07;24.50;;;12.70;96.30;;;;;;5046004;28;20410;-74
2022/10/04 16:31:27;;;;;;;25.57;18.83;;;12.60;96.30;;;;;;5031973;28;20410;-73
2022/10/04 16:34:23;;;;;;;22.63;7.47;;;12.40;96.30;;;;;;5037624;28;20430;-75
2022/10/04 16:37:11;;;;;;;4.83;3.40;;;12.30;96.30;;;;;;5033789;28;20407;-75
2022/10/04 16:39:57;;;;;;;8.83;4.67;;;12.10;96.30;;;;;;5014720;28;20481;-75
2022/10/04 16:42:31;;;;;;;9.27;3.97;;;12.00;96.30;;;;;;5014598;28;20458;-73
2022/10/04 16:45:06;;;;;;;7.60;3.90;;;11.90;96.30;;;;;;5032393;28;20773;-74
2022/10/04 16:47:46;;;;;;;6.63;3.83;;;11.80;96.30;;;;;;5031668;28;20423;-73
2022/10/04 16:50:12;;;;;;;6.23;3.47;;;11.70;96.30;;;;;;5033875;28;20410;-74
2022/10/04 16:53:18;;;;;;;7.60;3.53;;;11.60;96.30;;;;;;5032306;28;20413;-75
2022/10/04 16:55:54;;;;;;;7.10;3.63;;;11.50;96.30;;;;;;5011932;28;20192;-73
2022/10/04 16:58:26;;;;;;;6.63;2.63;;;11.50;96.30;;;;;;5031343;28;20545;-75
2022/10/04 17:01:20;;;;;;;5.87;2.27;;;11.40;96.30;;;;;;5031846;28;20431;-74
2022/10/04 17:03:58;;;;;;;4.50;2.97;;;11.30;96.30;;;;;;5032038;28;20502;-74
2022/10/04 17:06:32;;;;;;;2.73;1.90;;;11.20;96.30;;;;;;5032234;28;20399;-75
2022/10/04 17:09:13;;;;;;;3.57;2.00;;;11.20;96.30;;;;;;5031258;28;20423;-75
2022/10/04 17:12:10;;;;;;;12.40;8.50;;;11.20;96.30;;;;;;5031276;28;20447;-74
2022/10/04 17:14:53;;;;;;;10.63;7.70;;;11.10;96.30;;;;;;5030359;28;20464;-74
2022/10/04 17:17:42;;;;;;;54.73;31.57;;;11.10;96.30;;;;;;5029468;28;20419;-74
2022/10/04 17:20:36;;;;;;;20.87;12.87;;;11.10;96.30;;;;;;5042095;28;20929;-74
2022/10/04 17:23:29;;;;;;;8.97;5.20;;;11.00;96.30;;;;;;5042945;28;20535;-75
2022/10/04 17:26:06;;;;;;;14.10;10.83;;;10.80;96.30;;;;;;5036088;28;20449;-75
2022/10/04 17:28:56;;;;;;;7.57;6.10;;;10.60;96.30;;;;;;5014842;28;20488;-75
2022/10/04 17:34:06;;;;;;;19.83;12.03;;;10.60;96.30;;;;;;5766012;22;20491;-75
2022/10/04 17:36:35;;;;;;;41.07;33.10;;;10.40;96.30;;;;;;5007020;28;20505;-74
2022/10/04 17:39:18;;;;;;;125.63;93.80;;;10.20;96.30;;;;;;5014928;28;20420;-74
2022/10/04 17:42:15;;;;;;;31.30;24.60;;;10.00;96.30;;;;;;5011609;28;20516;-74
2022/10/04 17:45:11;;;;;;;18.40;14.73;;;10.00;96.30;;;;;;4976699;28;20415;-75
2022/10/04 17:56:43;;;;;;;3.10;2.67;;;9.90;96.30;;;;;;4977884;28;20452;-75
2022/10/04 17:59:24;;;;;;;9.17;3.73;;;9.90;96.30;;;;;;4978015;28;20425;-75
2022/10/04 18:02:09;;;;;;;8.70;3.60;;;10.00;96.30;;;;;;4977336;28;20457;-75
2022/10/04 18:04:46;;;;;;;4.27;2.83;;;10.00;96.30;;;;;;4994736;28;20474;-75
2022/10/04 18:07:25;;;;;;;3.17;2.00;;;10.20;96.30;;;;;;4996466;28;20408;-76
2022/10/04 18:10:12;;;;;;;2.50;1.37;;;10.40;96.30;;;;;;4996245;28;20431;-75
2022/10/04 18:12:54;;;;;;;6.33;2.57;;;10.70;96.30;;;;;;4978744;28;20453;-75
2022/10/04 18:15:25;;;;;;;5.10;2.80;;;10.70;96.30;;;;;;4996434;28;20401;-75
2022/10/04 18:18:05;;;;;;;2.73;2.27;;;10.50;96.30;;;;;;4996609;28;20443;-75
2022/10/04 18:20:40;;;;;;;3.80;1.57;;;10.30;96.30;;;;;;4996489;28;20416;-75
2022/10/04 18:23:27;;;;;;;2.00;1.20;;;10.30;96.30;;;;;;4979305;28;20451;-75
2022/10/04 18:26:17;;;;;;;1.50;1.40;;;10.40;96.30;;;;;;4996636;28;20935;-75
2022/10/04 18:28:43;;;;;;;4.50;2.47;;;10.40;96.30;;;;;;4996506;28;20416;-75
2022/10/04 18:31:28;;;;;;;3.13;2.40;;;10.50;96.30;;;;;;4996713;28;21214;-75
2022/10/04 18:33:55;;;;;;;2.70;2.30;;;10.60;96.30;;;;;;4996808;28;20463;-75
2022/10/04 18:36:35;;;;;;;2.17;1.40;;;10.50;96.30;;;;;;4978911;28;20496;-75
2022/10/04 18:39:10;;;;;;;8.37;7.20;;;10.40;96.30;;;;;;4996081;28;20436;-75
2022/10/04 18:41:50;;;;;;;4.33;1.70;;;10.30;96.30;;;;;;4978703;28;20547;-75
2022/10/04 18:44:18;;;;;;;6.73;3.73;;;10.20;96.30;;;;;;4995987;28;20899;-75
2022/10/04 18:46:48;;;;;;;3.20;1.87;;;10.10;96.30;;;;;;4995631;28;20929;-75
2022/10/04 18:49:25;;;;;;;3.77;2.10;;;9.90;96.30;;;;;;4978529;28;20531;-75
2022/10/04 18:52:04;;;;;;;3.27;2.30;;;9.70;96.30;;;;;;4996039;28;20440;-75
2022/10/04 18:55:04;;;;;;;1.93;1.20;;;9.40;96.30;;;;;;4995559;28;20521;-75
2022/10/04 19:03:36;;;;;;;2.83;1.93;;;9.10;96.30;;;;;;4996208;28;20850;-75
2022/10/04 19:06:26;;;;;;;2.93;2.40;;;9.00;96.30;;;;;;4979378;28;20420;-74
2022/10/04 19:09:16;;;;;;;5.57;4.20;;;9.00;96.30;;;;;;4996615;28;20405;-75
2022/10/04 19:11:50;;;;;;;2.13;1.60;;;9.00;96.30;;;;;;4996566;28;20425;-74
2022/10/04 19:14:42;;;;;;;2.87;1.43;;;8.90;96.30;;;;;;4996574;28;20439;-74
2022/10/04 19:17:54;;;;;;;3.67;1.70;;;9.00;96.30;;;;;;4993433;28;20444;-75
2022/10/04 19:20:38;;;;;;;2.13;1.33;;;8.90;96.30;;;;;;4975194;28;20420;-75
2022/10/04 19:23:47;;;;;;;4.73;1.50;;;8.80;96.30;;;;;;4976324;28;20453;-74
2022/10/04 19:26:28;;;;;;;4.20;3.50;;;8.70;96.30;;;;;;4962439;28;20436;-75
2022/10/04 19:29:08;;;;;;;4.10;2.17;;;8.50;96.30;;;;;;4976111;28;20401;-75
2022/10/04 19:31:57;;;;;;;8.30;2.40;;;8.40;96.30;;;;;;4992654;28;20990;-75
2022/10/04 19:34:47;;;;;;;6.20;3.10;;;8.60;96.30;;;;;;4978461;28;20437;-75
2022/10/04 19:37:24;;;;;;;6.00;3.57;;;8.70;96.30;;;;;;4975853;28;20500;-75
2022/10/04 19:39:58;;;;;;;7.87;4.77;;;8.60;96.30;;;;;;4975358;28;20492;-75
2022/10/04 19:42:52;;;;;;;8.63;6.00;;;8.40;96.30;;;;;;4975803;28;20461;-75
2022/10/04 19:45:42;;;;;;;29.17;24.80;;;8.20;96.30;;;;;;4956347;28;20452;-75
2022/10/04 19:48:18;;;;;;;10.00;6.70;;;8.20;96.30;;;;;;4994454;28;20397;-75
2022/10/04 19:50:55;;;;;;;98.70;63.73;;;8.00;96.30;;;;;;4994473;28;20788;-75
2022/10/04 19:53:34;;;;;;;27.67;19.30;;;8.00;96.30;;;;;;4994559;28;20405;-75
2022/10/04 19:56:02;;;;;;;8.10;2.70;;;7.90;96.30;;;;;;4994527;28;20511;-75
2022/10/04 19:58:45;;;;;;;9.77;6.70;;;7.70;96.30;;;;;;4994323;28;20413;-75
2022/10/04 20:01:12;;;;;;;3.47;2.40;;;7.80;96.30;;;;;;4994337;28;20793;-75
2022/10/04 20:03:38;;;;;;;4.07;2.83;;;8.00;96.30;;;;;;4994153;28;20904;-75
2022/10/04 20:06:04;;;;;;;6.70;2.80;;;7.90;96.30;;;;;;4976040;28;20425;-75
2022/10/04 20:08:53;;;;;;;9.40;3.87;;;7.90;96.30;;;;;;4993832;28;20563;-75
2022/10/04 20:11:26;;;;;;;9.30;3.77;;;7.80;96.30;;;;;;4994148;28;21054;-75
2022/10/04 20:14:15;;;;;;;7.00;4.50;;;7.80;96.30;;;;;;4993770;28;20416;-75
2022/10/04 20:16:51;;;;;;;7.70;3.00;;;7.70;96.30;;;;;;4955626;28;20413;-75
2022/10/04 20:19:26;;;;;;;4.73;3.10;;;7.70;96.30;;;;;;4993946;28;20417;-75
2022/10/04 20:21:52;;;;;;;4.70;3.20;;;7.60;96.30;;;;;;4993722;28;20848;-75
2022/10/04 20:24:40;;;;;;;11.00;3.30;;;7.40;96.30;;;;;;4993580;28;20424;-75
2022/10/04 20:27:20;;;;;;;2.90;2.50;;;7.30;96.30;;;;;;4975893;28;20456;-75
2022/10/04 20:29:51;;;;;;;6.00;3.17;;;7.20;96.30;;;;;;4993657;28;20420;-75
2022/10/04 20:32:26;;;;;;;4.50;2.80;;;7.20;96.30;;;;;;4993405;28;20441;-75
2022/10/04 20:34:53;;;;;;;3.60;2.60;;;7.10;96.30;;;;;;4976279;28;20456;-75
2022/10/04 20:37:20;;;;;;;5.70;2.40;;;7.10;96.30;;;;;;4993290;28;20456;-75
2022/10/04 20:39:45;;;;;;;5.60;3.13;;;7.10;96.30;;;;;;4976119;28;20432;-75
2022/10/04 20:42:36;;;;;;;4.00;2.73;;;7.00;96.30;;;;;;4994097;28;20518;-75
2022/10/04 20:45:08;;;;;;;6.00;2.90;;;6.90;96.30;;;;;;4994168;28;20329;-75
2022/10/04 20:47:42;;;;;;;5.53;2.87;;;6.90;96.30;;;;;;4978792;28;20422;-76
2022/10/04 20:50:22;;;;;;;2.90;2.60;;;6.90;96.30;;;;;;4975347;28;20904;-76
2022/10/04 20:52:55;;;;;;;4.37;2.77;;;6.80;96.30;;;;;;4992907;28;20409;-75
2022/10/04 20:55:26;;;;;;;5.43;2.40;;;6.80;96.30;;;;;;4993152;28;20405;-76
2022/10/04 20:58:20;;;;;;;6.43;3.30;;;6.80;96.30;;;;;;4992694;28;20415;-76
2022/10/04 21:00:58;;;;;;;4.47;3.20;;;6.80;96.30;;;;;;4992870;28;20451;-76
2022/10/04 21:03:23;;;;;;;7.63;3.93;;;6.80;96.30;;;;;;4975547;28;20428;-76
2022/10/04 21:06:02;;;;;;;7.70;4.37;;;6.90;96.30;;;;;;4992337;28;20412;-77
2022/10/04 21:08:28;;;;;;;6.97;2.80;;;6.80;96.30;;;;;;4960099;28;20178;-77
2022/10/04 21:11:08;;;;;;;7.20;3.03;;;6.80;96.30;;;;;;4973754;28;20437;-77
2022/10/04 21:13:53;;;;;;;3.50;2.80;;;6.80;96.30;;;;;;4986566;28;20181;-77
2022/10/04 21:16:43;;;;;;;4.67;3.17;;;6.80;96.30;;;;;;4992596;28;20405;-77
2022/10/04 21:19:37;;;;;;;5.23;3.80;;;6.80;96.30;;;;;;4992631;28;20504;-76
2022/10/04 21:22:15;;;;;;;3.70;2.37;;;6.80;96.30;;;;;;4992472;28;20466;-78
2022/10/04 21:24:49;;;;;;;5.10;2.63;;;6.80;96.30;;;;;;4992608;28;20440;-78
2022/10/04 21:27:33;;;;;;;3.43;2.43;;;6.90;96.30;;;;;;4992127;28;20427;-78
2022/10/04 21:30:06;;;;;;;4.70;2.60;;;6.90;96.30;;;;;;4992635;28;20950;-77